createdAt,value
2019-02-18T00:00:45.675Z,65.60
2019-02-18T00:03:19.554Z,64.00
2019-02-18T00:05:51.107Z,65.60
2019-02-18T00:08:23.467Z,65.30
2019-02-18T00:10:57.096Z,67.80
2019-02-18T00:13:27.381Z,68.40
2019-02-18T00:15:57.615Z,69.20
2019-02-18T00:18:30.200Z,68.30
2019-02-18T00:21:03.550Z,67.90
2019-02-18T00:23:36.880Z,66.50
2019-02-18T00:26:09.782Z,65.40
2019-02-18T00:28:42.464Z,67.30
2019-02-18T00:31:15.749Z,65.40
2019-02-18T00:33:46.413Z,64.20
2019-02-18T00:36:17.139Z,64.20
2019-02-18T00:38:47.298Z,63.80
2019-02-18T00:41:19.619Z,64.90
2019-02-18T00:43:54.581Z,65.30
2019-02-18T00:46:27.960Z,67.10
2019-02-18T00:49:07.875Z,67.10
2019-02-18T00:51:39.503Z,66.70
2019-02-18T00:54:11.930Z,67.20
2019-02-18T00:56:45.354Z,67.10
2019-02-18T00:59:15.794Z,68.20
2019-02-18T01:01:46.699Z,70.00
2019-02-18T01:04:16.868Z,68.30
2019-02-18T01:06:47.088Z,68.90
2019-02-18T01:09:18.528Z,71.00
2019-02-18T01:11:48.647Z,70.00
2019-02-18T01:14:19.147Z,71.10
2019-02-18T01:16:52.709Z,71.90
2019-02-18T01:19:25.477Z,71.60
2019-02-18T01:21:56.559Z,69.80
2019-02-18T01:24:30.315Z,68.70
2019-02-18T01:27:02.255Z,67.60
2019-02-18T01:29:32.422Z,67.70
2019-02-18T01:32:02.629Z,68.40
2019-02-18T01:34:34.217Z,64.70
2019-02-18T01:37:04.440Z,63.80
2019-02-18T01:39:34.604Z,65.10
2019-02-18T01:42:06.565Z,66.60
2019-02-18T01:44:36.676Z,68.50
2019-02-18T01:47:07.206Z,70.40
2019-02-18T01:49:40.455Z,71.40
2019-02-18T01:52:10.581Z,73.40
2019-02-18T01:54:40.964Z,73.50
2019-02-18T01:57:12.611Z,73.60
2019-02-18T01:59:49.480Z,72.70
2019-02-18T02:02:21.903Z,69.60
2019-02-18T02:04:53.495Z,70.00
2019-02-18T02:07:28.463Z,71.10
2019-02-18T02:09:59.724Z,71.40
2019-02-18T02:12:30.502Z,71.60
2019-02-18T02:15:01.564Z,69.50
2019-02-18T02:17:32.762Z,69.20
2019-02-18T02:20:02.932Z,69.20
2019-02-18T02:22:33.922Z,67.70
2019-02-18T02:25:05.088Z,67.20
2019-02-18T02:27:37.227Z,70.30
2019-02-18T02:30:08.270Z,71.40
2019-02-18T02:32:40.239Z,72.40
2019-02-18T02:35:10.461Z,71.40
2019-02-18T02:37:40.698Z,71.60
2019-02-18T02:40:11.621Z,71.80
2019-02-18T02:42:41.868Z,74.30
2019-02-18T02:45:12.071Z,74.30
2019-02-18T02:47:42.242Z,75.40
2019-02-18T02:50:12.420Z,75.00
2019-02-18T02:52:42.580Z,75.20
2019-02-18T02:55:12.711Z,75.30
2019-02-18T02:57:43.178Z,75.40
2019-02-18T03:00:13.471Z,75.90
2019-02-18T03:02:44.357Z,74.70
2019-02-18T03:05:14.751Z,72.20
2019-02-18T03:07:44.905Z,70.80
2019-02-18T03:10:15.156Z,69.90
2019-02-18T03:12:47.703Z,69.40
2019-02-18T03:15:20.047Z,68.30
2019-02-18T03:17:52.661Z,67.30
2019-02-18T03:20:30.551Z,65.80
2019-02-18T03:23:00.707Z,66.60
2019-02-18T03:25:32.576Z,67.30
2019-02-18T03:28:09.600Z,68.30
2019-02-18T03:31:02.396Z,69.30
2019-02-18T03:34:09.736Z,68.00
2019-02-18T03:36:39.931Z,71.00
2019-02-18T03:39:12.058Z,69.80
2019-02-18T03:41:44.815Z,71.30
2019-02-18T03:44:19.332Z,71.10
2019-02-18T03:46:51.703Z,71.10
2019-02-18T03:49:22.188Z,72.10
2019-02-18T03:51:53.590Z,74.80
2019-02-18T03:54:26.614Z,76.60
2019-02-18T03:56:56.850Z,75.60
2019-02-18T03:59:27.046Z,71.20
2019-02-18T04:01:57.230Z,71.70
2019-02-18T04:04:29.318Z,69.70
2019-02-18T04:07:00.729Z,71.60
2019-02-18T04:09:30.870Z,73.00
2019-02-18T04:12:03.945Z,74.50
2019-02-18T04:14:34.208Z,76.60
2019-02-18T04:17:06.331Z,76.60
2019-02-18T04:19:37.071Z,77.50
2019-02-18T04:22:07.352Z,78.70
2019-02-18T04:24:37.490Z,78.50
2019-02-18T04:27:11.700Z,78.50
2019-02-18T04:29:42.298Z,78.00
2019-02-18T04:32:13.232Z,73.70
2019-02-18T04:34:43.465Z,72.60
2019-02-18T04:37:14.665Z,73.80
2019-02-18T04:39:44.886Z,74.30
2019-02-18T04:42:16.059Z,74.40
2019-02-18T04:44:46.274Z,74.80
2019-02-18T04:47:17.046Z,75.60
2019-02-18T04:49:47.928Z,76.70
2019-02-18T04:52:18.422Z,76.70
2019-02-18T04:54:49.266Z,75.90
2019-02-18T04:57:19.518Z,77.60
2019-02-18T04:59:50.514Z,75.80
2019-02-18T05:02:22.493Z,75.40
2019-02-18T05:04:58.131Z,74.50
2019-02-18T05:07:29.708Z,76.20
2019-02-18T05:09:59.883Z,76.00
2019-02-18T05:12:32.041Z,76.10
2019-02-18T05:15:18.940Z,76.20
2019-02-18T05:18:07.355Z,75.30
2019-02-18T05:20:37.984Z,74.70
2019-02-18T05:23:12.947Z,74.00
2019-02-18T05:25:43.089Z,75.40
2019-02-18T05:28:13.228Z,75.10
2019-02-18T05:30:44.114Z,76.00
2019-02-18T05:35:51.822Z,76.70
2019-02-18T05:38:24.368Z,77.30
2019-02-18T05:40:56.654Z,76.00
2019-02-18T05:43:28.469Z,76.20
2019-02-18T05:46:00.515Z,73.30
2019-02-18T05:48:30.728Z,73.70
2019-02-18T05:51:00.938Z,73.40
2019-02-18T05:53:31.718Z,71.30
2019-02-18T05:56:05.288Z,70.90
2019-02-18T05:58:37.851Z,73.30
2019-02-18T06:01:08.053Z,73.90
2019-02-18T06:03:40.811Z,75.20
2019-02-18T06:06:11.058Z,73.40
2019-02-18T06:08:41.402Z,74.30
2019-02-18T06:11:11.772Z,74.30
2019-02-18T06:13:44.912Z,74.40
2019-02-18T06:16:15.075Z,73.40
2019-02-18T06:18:45.294Z,72.80
2019-02-18T06:21:17.306Z,71.80
2019-02-18T06:23:48.564Z,73.40
2019-02-18T06:26:22.607Z,74.00
2019-02-18T06:28:51.638Z,72.90
2019-02-18T06:31:21.817Z,71.60
2019-02-18T06:33:54.306Z,70.60
2019-02-18T06:36:25.425Z,70.70
2019-02-18T06:38:59.805Z,71.30
2019-02-18T06:41:30.367Z,72.30
2019-02-18T06:44:00.566Z,73.20
2019-02-18T06:46:41.084Z,75.20
2019-02-18T06:49:14.176Z,75.90
2019-02-18T06:51:44.350Z,76.90
2019-02-18T06:54:15.054Z,76.90
2019-02-18T06:57:13.315Z,76.50
2019-02-18T07:00:00.253Z,74.90
2019-02-18T07:02:52.491Z,72.90
2019-02-18T07:05:50.842Z,70.40
2019-02-18T07:08:41.306Z,70.00
2019-02-18T07:11:50.887Z,70.40
2019-02-18T07:14:23.668Z,68.90
2019-02-18T07:16:55.304Z,68.90
2019-02-18T07:19:25.945Z,69.00
2019-02-18T07:21:58.528Z,69.60
2019-02-18T07:24:28.716Z,67.60
2019-02-18T07:26:58.883Z,66.60
2019-02-18T07:29:29.135Z,67.70
2019-02-18T07:31:59.300Z,68.50
2019-02-18T07:34:31.980Z,68.60
2019-02-18T07:37:03.455Z,66.80
2019-02-18T07:39:33.636Z,67.20
2019-02-18T07:42:03.809Z,68.00
2019-02-18T07:44:35.163Z,68.10
2019-02-18T07:47:05.748Z,68.20
2019-02-18T07:49:35.967Z,65.40
2019-02-18T07:52:06.197Z,64.80
2019-02-18T07:54:37.680Z,64.90
2019-02-18T07:57:07.844Z,65.30
2019-02-18T07:59:38.031Z,65.10
2019-02-18T08:02:08.216Z,65.70
2019-02-18T08:04:38.398Z,65.20
2019-02-18T08:07:09.742Z,65.60
2019-02-18T08:09:39.991Z,64.30
2019-02-18T08:12:10.139Z,63.80
2019-02-18T08:14:41.463Z,64.70
2019-02-18T08:17:13.659Z,64.50
2019-02-18T08:19:43.900Z,64.00
2019-02-18T08:22:14.037Z,62.70
2019-02-18T08:24:46.961Z,63.50
2019-02-18T08:27:18.807Z,61.90
2019-02-18T08:29:50.425Z,60.70
2019-02-18T08:32:22.854Z,59.70
2019-02-18T08:34:57.267Z,58.50
2019-02-18T08:37:27.426Z,58.20
2019-02-18T08:39:57.591Z,57.00
2019-02-18T08:42:28.606Z,57.20
2019-02-18T08:44:58.787Z,55.40
2019-02-18T08:47:28.929Z,54.60
2019-02-18T08:49:59.090Z,53.80
2019-02-18T08:52:29.190Z,52.00
2019-02-18T08:54:59.439Z,51.70
2019-02-18T08:57:29.572Z,51.10
2019-02-18T08:59:59.755Z,50.80
2019-02-18T09:02:29.977Z,50.10
2019-02-18T09:05:00.223Z,49.30
2019-02-18T09:07:30.452Z,48.10
2019-02-18T09:10:01.818Z,46.70
2019-02-18T09:12:32.049Z,44.80
2019-02-18T09:15:02.266Z,42.30
2019-02-18T09:17:39.727Z,41.80
2019-02-18T09:20:10.215Z,41.10
2019-02-18T09:22:55.693Z,39.70
2019-02-18T09:25:50.675Z,38.60
2019-02-18T09:28:20.838Z,36.50
2019-02-18T09:30:53.004Z,35.20
2019-02-18T09:33:23.666Z,35.40
2019-02-18T09:35:54.369Z,33.40
2019-02-18T09:38:25.604Z,32.30
2019-02-18T09:40:56.056Z,29.70
2019-02-18T09:43:26.296Z,27.00
2019-02-18T09:45:56.513Z,26.60
2019-02-18T09:48:26.691Z,26.20
2019-02-18T09:50:56.922Z,24.60
2019-02-18T09:53:27.358Z,23.10
2019-02-18T09:55:57.489Z,23.50
2019-02-18T09:58:27.721Z,22.90
2019-02-18T10:01:02.903Z,22.30
2019-02-18T10:03:36.532Z,22.30
2019-02-18T10:06:07.539Z,22.30
2019-02-18T10:08:37.706Z,20.50
2019-02-18T10:11:07.854Z,19.90
2019-02-18T10:13:38.058Z,19.70
2019-02-18T10:16:08.578Z,19.70
2019-02-18T10:18:39.373Z,19.80
2019-02-18T10:21:09.541Z,19.10
2019-02-18T10:23:41.431Z,18.50
2019-02-18T10:26:11.996Z,17.20
2019-02-18T10:28:42.774Z,17.40
2019-02-18T10:31:12.961Z,16.80
2019-02-18T10:33:43.263Z,15.60
2019-02-18T10:36:13.439Z,15.80
2019-02-18T10:38:44.256Z,14.50
2019-02-18T10:41:15.957Z,15.50
2019-02-18T10:43:46.110Z,14.40
2019-02-18T10:46:17.072Z,12.90
2019-02-18T10:48:47.727Z,12.30
2019-02-18T10:51:18.010Z,12.30
2019-02-18T10:53:48.410Z,12.90
2019-02-18T10:56:18.771Z,12.80
2019-02-18T10:58:49.369Z,11.80
2019-02-18T11:01:19.571Z,11.90
2019-02-18T11:03:49.696Z,11.00
2019-02-18T11:06:21.808Z,10.60
2019-02-18T11:08:52.382Z,11.00
2019-02-18T11:11:22.577Z,11.50
2019-02-18T11:13:52.767Z,10.80
2019-02-18T11:16:23.045Z,10.90
2019-02-18T11:18:53.690Z,11.10
2019-02-18T11:21:25.333Z,11.30
2019-02-18T11:26:56.185Z,10.70
2019-02-18T11:29:30.754Z,10.40
2019-02-18T11:32:02.713Z,10.70
2019-02-18T11:34:33.742Z,10.90
2019-02-18T11:37:03.976Z,10.60
2019-02-18T11:39:34.607Z,10.40
2019-02-18T11:42:04.856Z,10.60
2019-02-18T11:44:36.171Z,10.60
2019-02-18T11:47:06.357Z,9.70
2019-02-18T11:49:36.762Z,9.90
2019-02-18T11:52:06.869Z,9.30
2019-02-18T11:54:37.044Z,9.20
2019-02-18T11:57:07.185Z,9.10
2019-02-18T11:59:37.347Z,9.00
2019-02-18T12:02:07.505Z,8.40
2019-02-18T12:04:38.267Z,9.60
2019-02-18T12:07:09.289Z,8.70
2019-02-18T12:09:40.310Z,8.70
2019-02-18T12:12:10.658Z,8.50
2019-02-18T12:14:40.975Z,8.20
2019-02-18T12:17:20.434Z,7.80
2019-02-18T12:19:48.124Z,8.00
2019-02-18T12:22:18.363Z,7.60
2019-02-18T12:24:48.976Z,7.90
2019-02-18T12:27:19.138Z,7.30
2019-02-18T12:29:53.424Z,7.30
2019-02-18T12:32:26.035Z,7.20
2019-02-18T12:35:01.465Z,7.50
2019-02-18T12:37:36.221Z,6.60
2019-02-18T12:40:06.771Z,6.30
2019-02-18T12:42:37.503Z,6.00
2019-02-18T12:45:08.355Z,5.20
2019-02-18T12:47:38.682Z,5.40
2019-02-18T12:50:09.362Z,5.20
2019-02-18T12:52:39.553Z,6.00
2019-02-18T12:55:10.963Z,5.80
2019-02-18T12:57:41.665Z,5.70
2019-02-18T13:00:13.830Z,5.80
2019-02-18T13:02:45.189Z,5.60
2019-02-18T13:05:15.676Z,5.50
2019-02-18T13:07:45.962Z,4.60
2019-02-18T13:10:17.742Z,5.60
2019-02-18T13:12:48.274Z,5.80
2019-02-18T13:15:18.661Z,6.10
2019-02-18T13:17:48.913Z,5.00
2019-02-18T13:20:19.211Z,5.60
2019-02-18T13:22:49.852Z,5.50
2019-02-18T13:25:20.126Z,6.10
2019-02-18T13:27:51.192Z,6.10
2019-02-18T13:30:21.700Z,5.50
2019-02-18T13:32:52.297Z,5.30
2019-02-18T13:35:22.623Z,4.90
2019-02-18T13:37:53.245Z,5.00
2019-02-18T13:40:23.543Z,4.30
2019-02-18T13:42:54.147Z,4.50
2019-02-18T13:45:24.395Z,4.80
2019-02-18T13:47:54.979Z,4.50
2019-02-18T13:50:25.228Z,4.30
2019-02-18T13:52:55.494Z,4.30
2019-02-18T13:55:27.833Z,3.40
2019-02-18T13:57:58.030Z,3.20
2019-02-18T14:00:28.560Z,3.60
2019-02-18T14:02:58.758Z,2.80
2019-02-18T14:05:29.971Z,2.70
2019-02-18T14:08:01.135Z,2.40
2019-02-18T14:10:31.380Z,3.30
2019-02-18T14:13:02.662Z,2.80
2019-02-18T14:18:02.434Z,1.00
2019-02-18T14:20:32.665Z,1.00
2019-02-18T14:23:04.148Z,1.00
2019-02-18T14:25:35.030Z,1.00
2019-02-18T14:28:06.181Z,1.00
2019-02-18T14:30:36.820Z,1.00
2019-02-18T14:33:06.960Z,1.00
2019-02-18T14:35:37.814Z,1.00
2019-02-18T14:38:08.017Z,1.00
2019-02-18T14:40:38.300Z,1.00
2019-02-18T14:43:08.877Z,1.00
2019-02-18T14:45:39.326Z,1.00
2019-02-18T14:48:10.262Z,1.00
2019-02-18T14:50:40.752Z,1.00
2019-02-18T14:53:11.010Z,1.00
2019-02-18T14:55:41.162Z,1.00
2019-02-18T14:58:12.952Z,1.00
2019-02-18T15:00:45.547Z,1.00
2019-02-18T15:03:15.738Z,1.00
2019-02-18T15:05:45.865Z,1.00
2019-02-18T15:08:16.124Z,1.00
2019-02-18T15:10:46.321Z,1.00
2019-02-18T15:13:18.363Z,1.00
2019-02-18T15:15:48.976Z,1.00
2019-02-18T15:18:20.380Z,1.00
2019-02-18T15:20:51.939Z,1.00
2019-02-18T15:23:22.764Z,1.00
2019-02-18T15:25:55.147Z,1.00
2019-02-18T15:28:26.634Z,1.00
2019-02-18T15:30:57.135Z,1.00
2019-02-18T15:33:27.571Z,1.00
2019-02-18T15:35:57.869Z,1.00
2019-02-18T15:38:30.249Z,1.00
2019-02-18T15:41:01.185Z,1.00
2019-02-18T15:43:32.947Z,1.00
2019-02-18T15:46:04.582Z,1.00
2019-02-18T15:48:36.419Z,1.00
2019-02-18T15:51:08.185Z,1.00
2019-02-18T15:53:39.964Z,1.00
2019-02-18T15:56:10.221Z,1.00
2019-02-18T15:58:40.863Z,1.00
2019-02-18T16:01:11.491Z,1.00
2019-02-18T16:03:41.752Z,1.30
2019-02-18T16:06:12.841Z,1.80
2019-02-18T16:08:43.249Z,2.10
2019-02-18T16:11:18.497Z,2.70
2019-02-18T16:13:50.191Z,2.60
2019-02-18T16:16:20.429Z,2.70
2019-02-18T16:18:53.283Z,3.10
2019-02-18T16:21:45.356Z,3.60
2019-02-18T16:26:53.284Z,10.00
2019-02-18T16:29:24.836Z,11.80
2019-02-18T16:31:55.102Z,12.60
2019-02-18T16:34:25.297Z,13.60
2019-02-18T16:36:55.526Z,14.50
2019-02-18T16:39:25.761Z,16.10
2019-02-18T16:41:57.395Z,18.00
2019-02-18T16:44:32.005Z,19.20
2019-02-18T16:47:55.867Z,20.20
2019-02-18T16:51:08.283Z,20.40
2019-02-18T16:57:33.563Z,21.30
2019-02-18T17:04:10.684Z,22.60
2019-02-18T17:07:30.494Z,23.00
2019-02-18T17:10:31.743Z,22.90
2019-02-18T17:13:45.470Z,22.90
2019-02-18T17:16:03.057Z,23.60
2019-02-18T17:19:36.342Z,24.20
2019-02-18T17:22:49.566Z,25.50
2019-02-18T17:25:26.417Z,25.10
2019-02-18T17:27:56.735Z,25.50
2019-02-18T17:30:28.546Z,25.90
2019-02-18T17:32:58.751Z,25.70
2019-02-18T17:35:31.254Z,26.00
2019-02-18T17:38:01.478Z,26.70
2019-02-18T17:40:31.639Z,27.10
2019-02-18T17:43:04.170Z,27.80
2019-02-18T17:45:34.440Z,28.40
2019-02-18T17:48:04.636Z,29.40
2019-02-18T17:50:34.951Z,29.90
2019-02-18T17:53:06.787Z,30.90
2019-02-18T17:55:37.046Z,31.30
2019-02-18T17:58:09.237Z,31.70
2019-02-18T18:00:44.571Z,32.00
2019-02-18T18:03:16.110Z,33.60
2019-02-18T18:05:46.668Z,33.50
2019-02-18T18:08:16.897Z,33.70
2019-02-18T18:10:47.053Z,33.90
2019-02-18T18:13:25.528Z,35.20
2019-02-18T18:15:56.861Z,34.80
2019-02-18T18:18:30.390Z,35.10
2019-02-18T18:21:02.814Z,36.60
2019-02-18T18:23:34.657Z,36.90
2019-02-18T18:26:05.688Z,36.90
2019-02-18T18:28:37.989Z,35.70
2019-02-18T18:31:08.194Z,35.50
2019-02-18T18:33:39.536Z,35.30
2019-02-18T18:36:12.439Z,37.30
2019-02-18T18:38:42.794Z,38.80
2019-02-18T18:41:13.907Z,38.30
2019-02-18T18:43:44.329Z,38.90
2019-02-18T18:46:14.754Z,39.30
2019-02-18T18:48:44.998Z,40.20
2019-02-18T18:51:15.994Z,38.90
2019-02-18T18:53:51.491Z,40.60
2019-02-18T18:56:22.816Z,40.60
2019-02-18T18:58:53.412Z,39.50
2019-02-18T19:01:28.199Z,41.20
2019-02-18T19:03:58.433Z,40.20
2019-02-18T19:06:29.030Z,39.70
2019-02-18T19:09:00.827Z,40.10
2019-02-18T19:11:31.090Z,41.20
2019-02-18T19:14:04.344Z,39.00
2019-02-18T19:16:36.186Z,40.50
2019-02-18T19:19:06.864Z,42.10
2019-02-18T19:21:37.075Z,42.30
2019-02-18T19:24:07.751Z,43.40
2019-02-18T19:26:39.920Z,42.70
2019-02-18T19:29:10.177Z,42.70
2019-02-18T19:31:40.413Z,41.50
2019-02-18T19:34:11.033Z,41.90
2019-02-18T19:36:41.230Z,43.50
2019-02-18T19:39:11.417Z,43.70
2019-02-18T19:41:42.573Z,44.10
2019-02-18T19:44:13.123Z,43.10
2019-02-18T19:46:44.120Z,42.40
2019-02-18T19:49:14.300Z,42.10
2019-02-18T19:51:44.831Z,42.40
2019-02-18T19:54:15.412Z,43.90
2019-02-18T19:56:45.771Z,44.40
2019-02-18T19:59:16.244Z,43.90
2019-02-18T20:01:46.643Z,42.90
2019-02-18T20:04:19.315Z,43.90
2019-02-18T20:06:50.511Z,43.40
2019-02-18T20:09:20.804Z,42.50
2019-02-18T20:11:52.339Z,43.60
2019-02-18T20:14:22.804Z,44.60
2019-02-18T20:16:53.503Z,45.90
2019-02-18T20:19:23.804Z,46.50
2019-02-18T20:21:54.138Z,47.70
2019-02-18T20:24:24.774Z,47.00
2019-02-18T20:26:55.022Z,46.90
2019-02-18T20:29:25.221Z,47.70
2019-02-18T20:31:55.462Z,47.90
2019-02-18T20:34:25.942Z,48.10
2019-02-18T20:36:58.813Z,49.50
2019-02-18T20:39:29.287Z,48.80
2019-02-18T20:42:01.267Z,49.10
2019-02-18T20:44:31.415Z,48.90
2019-02-18T20:47:03.179Z,48.80
2019-02-18T20:49:34.042Z,48.10
2019-02-18T20:52:05.569Z,48.70
2019-02-18T20:54:36.654Z,49.20
2019-02-18T20:57:07.401Z,49.40
2019-02-18T20:59:44.332Z,48.40
2019-02-18T21:02:15.426Z,48.60
2019-02-18T21:04:54.840Z,48.90
2019-02-18T21:11:04.112Z,50.20
2019-02-18T21:13:35.097Z,50.90
2019-02-18T21:16:13.255Z,50.70
2019-02-18T21:18:43.994Z,50.00
2019-02-18T21:21:15.715Z,49.90
2019-02-18T21:23:47.750Z,51.00
2019-02-18T21:26:19.890Z,51.80
2019-02-18T21:28:52.664Z,51.70
2019-02-18T21:31:22.092Z,52.40
2019-02-18T21:33:55.288Z,53.20
2019-02-18T21:36:25.703Z,53.40
2019-02-18T21:38:58.032Z,52.50
2019-02-18T21:41:28.347Z,53.50
2019-02-18T21:43:58.999Z,53.00
2019-02-18T21:46:30.522Z,53.10
2019-02-18T21:49:05.383Z,52.80
2019-02-18T21:51:37.135Z,53.00
2019-02-18T21:54:07.525Z,53.00
2019-02-18T21:56:37.725Z,53.80
2019-02-18T21:59:07.994Z,52.70
2019-02-18T22:01:42.866Z,52.10
2019-02-18T22:04:13.190Z,52.20
2019-02-18T22:06:54.940Z,52.20
2019-02-18T22:09:26.579Z,53.20
2019-02-18T22:11:58.295Z,53.80
2019-02-18T22:14:33.627Z,53.90
2019-02-18T22:17:03.286Z,52.20
2019-02-18T22:19:34.155Z,51.90
2019-02-18T22:22:04.527Z,51.30
2019-02-18T22:24:36.779Z,53.00
2019-02-18T22:27:08.227Z,53.70
2019-02-18T22:29:42.160Z,53.60
2019-02-18T22:32:13.532Z,53.80
2019-02-18T22:34:50.468Z,53.50
2019-02-18T22:37:29.476Z,54.50
2019-02-18T22:40:05.868Z,54.30
2019-02-18T22:42:36.426Z,54.40
2019-02-18T22:45:14.434Z,53.70
2019-02-18T22:47:47.702Z,56.10
2019-02-18T22:50:18.676Z,54.90
2019-02-18T22:52:49.180Z,55.70
2019-02-18T22:55:19.976Z,56.60
2019-02-18T22:57:54.658Z,56.70
2019-02-18T23:01:00.510Z,58.10
2019-02-18T23:03:30.980Z,59.00
2019-02-18T23:06:02.363Z,59.30
2019-02-18T23:08:35.299Z,59.40
2019-02-18T23:11:05.691Z,58.60
2019-02-18T23:13:37.610Z,61.00
2019-02-18T23:16:10.122Z,60.20
2019-02-18T23:18:40.239Z,59.90
2019-02-18T23:21:10.613Z,61.30
2019-02-18T23:23:41.480Z,60.50
2019-02-18T23:26:13.201Z,60.40
2019-02-18T23:31:28.706Z,60.90
2019-02-18T23:34:01.908Z,60.70
2019-02-18T23:36:37.328Z,61.20
2019-02-18T23:39:08.046Z,59.80
2019-02-18T23:41:40.591Z,60.40
2019-02-18T23:44:12.763Z,57.90
2019-02-18T23:46:42.888Z,58.80
2019-02-18T23:49:13.066Z,59.40
2019-02-18T23:51:43.176Z,60.00
2019-02-18T23:54:17.338Z,60.40
2019-02-18T23:56:47.513Z,59.20
2019-02-18T23:59:17.665Z,59.30
